ADDS METAR Data INFO
IDs: Format: Raw Decoded Include TAF

Data at: 1731 UTC 21 Sep 2017

KPEZ 211715Z AUTO 17011G16KT 10SM SCT036 BKN044 33/20 A2994 RMK AO2 T03340204
KPEZ 211655Z AUTO 18010G14KT 10SM SCT032 BKN040 BKN046 32/21 A2995 RMK AO2 T03150209
KPEZ 211640Z AUTO 15007G14KT 10SM BKN032 BKN041 BKN047 32/21 A2996 RMK AO2 T03170212
KPEZ 211615Z AUTO 14008KT 10SM BKN033 30/22 A2996 RMK AO2 T03040217
KPEZ 211555Z AUTO 15011G14KT 10SM SCT025 BKN032 30/22 A2996 RMK AO2 T02980215
KPEZ 211540Z AUTO 17012G16KT 10SM BKN027 BKN034 30/22 A2996 RMK AO2 T02950219
KPEZ 211515Z AUTO 16007G14KT 10SM BKN022 BKN028 29/23 A2996 RMK AO2 T02850225
KPEZ 211455Z AUTO 16008KT 10SM SCT016 BKN021 OVC027 28/23 A2995 RMK AO2 T02800230
KPEZ 211440Z AUTO 17007KT 10SM SCT016 OVC026 28/24 A2995 RMK AO2 T02750235
KPEZ 211415Z AUTO 15006KT 10SM BKN012 BKN018 OVC027 27/24 A2995 RMK AO2 T02700238
KPEZ 211355Z AUTO 17007KT 10SM SCT009 BKN014 OVC018 27/24 A2994 RMK AO2 T02660240
KPEZ 211335Z AUTO 14005KT 10SM BKN010 BKN014 BKN026 27/24 A2993 RMK AO2 T02650240
KPEZ 211315Z AUTO 16004KT 10SM BKN012 BKN018 BKN027 26/24 A2993 RMK AO2 T02620240
KPEZ 211255Z AUTO 15005KT 10SM BKN014 BKN021 BKN027 26/24 A2993 RMK AO2 T02600240
KPEZ 211235Z AUTO 15004KT 10SM BKN014 BKN026 26/24 A2993 RMK AO2 T02600238
KPEZ 211215Z AUTO 14004KT 10SM SCT014 BKN024 26/24 A2993 RMK AO2 T02600238
KPEZ 211155Z AUTO 15004KT 10SM SCT015 BKN022 26/24 A2992 RMK AO2 T02600240 10265 20258
KPEZ 211135Z AUTO 15004KT 10SM BKN020 26/24 A2992 RMK AO2 T02580240
KPEZ 211115Z AUTO 13003KT 10SM BKN018 26/24 A2991 RMK AO2 T02580240
KPEZ 211055Z AUTO 13003KT 10SM SCT014 SCT019 SCT050 26/24 A2991 RMK AO2 T02580238
KPEZ 211035Z AUTO 14003KT 10SM SCT016 26/24 A2991 RMK AO2 T02590239
KPEZ 211015Z AUTO 14003KT 10SM BKN016 26/24 A2990 RMK AO2 T02610238
KPEZ 210955Z AUTO 15005KT 10SM BKN016 26/24 A2990 RMK AO2 T02630238
KPEZ 210940Z AUTO 15005KT 10SM BKN016 26/24 A2991 RMK AO2 T02640237
KPEZ 210915Z AUTO 15005KT 10SM BKN018 27/24 A2991 RMK AO2 T02650237
KPEZ 210855Z AUTO 16007KT 10SM BKN018 27/24 A2991 RMK AO2 T02650237
KPEZ 210840Z AUTO 17006KT 10SM BKN018 27/24 A2991 RMK AO2 T02650238
KPEZ 210815Z AUTO 16007KT 10SM BKN016 26/24 A2992 RMK AO2 T02620240
KPEZ 210755Z AUTO 16006KT 10SM BKN016 26/24 A2991 RMK AO2 T02620240
KPEZ 210735Z AUTO 15004KT 10SM BKN016 26/24 A2992 RMK AO2 T02610240
KPEZ 210715Z AUTO 15003KT 10SM CLR 26/24 A2992 RMK AO2 T02610238
KPEZ 210655Z AUTO 14005KT 10SM CLR 26/24 A2992 RMK AO2 T02620238
KPEZ 210640Z AUTO 14005KT 10SM CLR 26/24 A2992 RMK AO2 T02630238
KPEZ 210615Z AUTO 15005KT 10SM CLR 27/24 A2991 RMK AO2 T02650237
KPEZ 210555Z AUTO 15005KT 10SM CLR 27/24 A2992 RMK AO2 T02660237 10342 20266 403790247
KPEZ 210540Z AUTO 14006KT 10SM CLR 27/24 A2992 RMK AO2 T02660236
KPEZ 210515Z AUTO 15005KT 10SM CLR 27/24 A2993 RMK AO2 T02700236
KPEZ 210455Z AUTO 14004KT 10SM CLR 27/24 A2992 RMK AO2 T02710236
KPEZ 210435Z AUTO 15009KT 10SM CLR 27/24 A2991 RMK AO2 T02730235
KPEZ 210415Z AUTO 15007KT 10SM CLR 28/23 A2991 RMK AO2 T02750234
KPEZ 210355Z AUTO 14010G15KT 10SM CLR 28/23 A2991 RMK AO2 T02780233
KPEZ 210335Z AUTO 14009G15KT 10SM CLR 28/23 A2990 RMK AO2 T02800231
KPEZ 210315Z AUTO 14008KT 10SM CLR 28/23 A2990 RMK AO2 T02830230
KPEZ 210255Z AUTO 14008G16KT 10SM CLR 29/23 A2989 RMK AO2 T02860226
KPEZ 210235Z AUTO 14010G15KT 10SM CLR 29/23 A2988 RMK AO2 T02900225
KPEZ 210215Z AUTO 14008G15KT 10SM CLR 30/23 A2987 RMK AO2 T02950225
KPEZ 210155Z AUTO 14012G18KT 10SM CLR 30/22 A2986 RMK AO2 T03000223
KPEZ 210135Z AUTO 14010G17KT 10SM CLR 31/22 A2985 RMK AO2 T03060217
KPEZ 210115Z AUTO 13013G18KT 10SM CLR 31/21 A2984 RMK AO2 T03110213
KPEZ 210055Z AUTO 14009G17KT 10SM CLR 32/22 A2983 RMK AO2 T03170215
KPEZ 210035Z AUTO 13010G16KT 10SM CLR 32/21 A2983 RMK AO2 T03240213
KPEZ 210015Z AUTO 12011G19KT 10SM CLR 33/21 A2983 RMK AO2 LTG DSNT SW T03310209
KPEZ 202355Z AUTO 12009G16KT 10SM CLR 34/19 A2983 RMK AO2 T03430194 10379 20343
KPEZ 202335Z AUTO 13008KT 10SM CLR 35/18 A2982 RMK AO2 T03470175
KPEZ 202315Z AUTO 13007KT 10SM CLR 35/18 A2982 RMK AO2 T03510177
KPEZ 202255Z AUTO 15008G16KT 110V170 10SM CLR 36/18 A2981 RMK AO2 T03610180
KPEZ 202240Z AUTO 13008G15KT 10SM CLR 37/18 A2981 RMK AO2 T03660175
KPEZ 202215Z AUTO 15008G18KT 10SM CLR 37/18 A2980 RMK AO2 T03670179
KPEZ 202155Z AUTO 15007KT 10SM CLR 38/16 A2980 RMK AO2 T03760163
KPEZ 202135Z AUTO 17011G16KT 10SM CLR 38/17 A2980 RMK AO2 T03770168
KPEZ 202115Z AUTO 12004G15KT 10SM SCT070 38/17 A2981 RMK AO2 T03750171
KPEZ 202055Z AUTO 13008G14KT 10SM SCT060 38/18 A2982 RMK AO2 T03760176
KPEZ 202035Z AUTO 18009G15KT 10SM SCT060 37/18 A2983 RMK AO2 T03740179
KPEZ 202015Z AUTO 19005KT 10SM SCT060 37/18 A2983 RMK AO2 T03670182
KPEZ 201955Z AUTO 14006G14KT 10SM CLR 37/19 A2984 RMK AO2 T03700185
KPEZ 201935Z AUTO 15009KT 10SM SCT060 37/18 A2986 RMK AO2 T03690183
KPEZ 201915Z AUTO 14007KT 10SM SCT050 36/19 A2986 RMK AO2 T03630187
KPEZ 201855Z AUTO 19007KT 10SM SCT050 36/19 A2987 RMK AO2 T03620186
KPEZ 201835Z AUTO 17010KT 10SM SCT050 36/19 A2988 RMK AO2 T03570189
KPEZ 201815Z AUTO 18010G15KT 10SM CLR 36/19 A2990 RMK AO2 T03560193
KPEZ 201755Z AUTO 14006G15KT 10SM CLR 35/20 A2991 RMK AO2 T03480197 10349 20251
KPEZ 201735Z AUTO 16007G17KT 10SM CLR 34/20 A2992 RMK AO2 T03440198
KPEZ 201715Z AUTO 20009G15KT 10SM SCT044 34/20 A2992 RMK AO2 T03400197
KPEZ 201655Z AUTO 17011KT 10SM CLR 33/20 A2993 RMK AO2 T03340204
KPEZ 201635Z AUTO 18010G15KT 140V220 10SM CLR 32/21 A2993 RMK AO2 T03240207
KPEZ 201615Z AUTO 15007G15KT 10SM CLR 32/21 A2993 RMK AO2 T03190214
KPEZ 201555Z AUTO 17010G14KT 10SM SCT024 31/22 A2993 RMK AO2 T03060217
KPEZ 201535Z AUTO 14008G14KT 10SM SCT021 30/22 A2994 RMK AO2 T03030223
KPEZ 201515Z AUTO 15007G15KT 10SM BKN019 BKN024 30/23 A2994 RMK AO2 T02950226
KPEZ 201500Z AUTO 17011KT 10SM BKN017 BKN025 29/23 A2993 RMK AO2 T02850228
KPEZ 201435Z AUTO 17009KT 10SM BKN015 BKN021 28/23 A2993 RMK AO2 T02750230
KPEZ 201415Z AUTO 16008KT 10SM BKN013 OVC018 27/23 A2993 RMK AO2 T02670232
KPEZ 201400Z AUTO 16006KT 10SM OVC013 27/24 A2992 RMK AO2 T02660235
KPEZ 201335Z AUTO 15006KT 10SM BKN013 26/24 A2991 RMK AO2 T02580235
KPEZ 201315Z AUTO 14003KT 10SM CLR 25/23 A2991 RMK AO2 T02530233
KPEZ 201300Z AUTO 13003KT 10SM SCT014 25/23 A2991 RMK AO2 T02520232
KPEZ 201235Z AUTO 15004KT 10SM SCT017 25/23 A2991 RMK AO2 T02520231
KPEZ 201215Z AUTO 16005KT 10SM OVC017 25/23 A2991 RMK AO2 T02530233
KPEZ 201155Z AUTO 16004KT 10SM OVC017 25/24 A2990 RMK AO2 T02510235 10263 20247
KPEZ 201135Z AUTO 17004KT 10SM BKN013 OVC018 25/24 A2989 RMK AO2 T02500235
KPEZ 201115Z AUTO 15004KT 7SM BKN013 25/24 A2989 RMK AO2 T02480235
KPEZ 201055Z AUTO 13004KT 10SM SCT013 25/24 A2988 RMK AO2 T02480235
KPEZ 201035Z AUTO 14004KT 10SM CLR 25/24 A2988 RMK AO2 T02500235
KPEZ 201015Z AUTO 16003KT 10SM CLR 25/24 A2987 RMK AO2 T02500235
KPEZ 200955Z AUTO 16007KT 10SM CLR 25/24 A2987 RMK AO2 T02510235
KPEZ 200935Z AUTO 17007KT 10SM CLR 25/24 A2987 RMK AO2 T02520235
KPEZ 200915Z AUTO 16005KT 10SM SCT012 25/24 A2987 RMK AO2 T02520235
KPEZ 200855Z AUTO 16005KT 10SM SCT014 25/23 A2987 RMK AO2 T02520234
KPEZ 200835Z AUTO 16005KT 10SM CLR 25/23 A2987 RMK AO2 T02520233
KPEZ 200815Z AUTO 16005KT 10SM SCT013 26/23 A2988 RMK AO2 T02550233
KPEZ 200755Z AUTO 15006KT 10SM CLR 26/23 A2988 RMK AO2 T02550232
KPEZ 200735Z AUTO 13004KT 10SM CLR 26/23 A2988 RMK AO2 T02550230
KPEZ 200720Z AUTO 14004KT 10SM CLR 26/23 A2988 RMK AO2 T02550230
KPEZ 200655Z AUTO 14004KT 10SM CLR 26/23 A2989 RMK AO2 T02560225
KPEZ 200635Z AUTO 13003KT 10SM CLR 26/22 A2989 RMK AO2 T02580223
KPEZ 200620Z AUTO 13003KT 10SM CLR 26/22 A2988 RMK AO2 T02600221
KPEZ 200555Z AUTO 15005KT 10SM CLR 26/22 A2988 RMK AO2 T02630220 10327 20262 403730243
KPEZ 200535Z AUTO 13003KT 10SM CLR 27/22 A2988 RMK AO2 T02650222